createdAt,value
2022-08-22T00:00:34.847Z,18.12
2022-08-22T00:05:47.879Z,18.10
2022-08-22T00:10:58.326Z,18.07
2022-08-22T00:16:08.931Z,17.98
2022-08-22T00:21:14.985Z,17.83
2022-08-22T00:26:31.971Z,17.73
2022-08-22T00:31:40.802Z,17.62
2022-08-22T00:36:48.938Z,17.60
2022-08-22T00:42:31.646Z,17.44
2022-08-22T00:47:57.047Z,17.48
2022-08-22T00:53:15.357Z,17.41
2022-08-22T00:58:46.268Z,17.32
2022-08-22T01:04:06.803Z,17.26
2022-08-22T01:09:21.205Z,17.16
2022-08-22T01:14:39.547Z,17.05
2022-08-22T01:20:20.074Z,16.89
2022-08-22T01:25:59.468Z,16.72
2022-08-22T01:31:43.133Z,16.73
2022-08-22T01:37:25.239Z,16.66
2022-08-22T01:43:01.696Z,16.55
2022-08-22T01:48:12.370Z,16.41
2022-08-22T01:53:24.587Z,16.29
2022-08-22T01:58:29.845Z,16.25
2022-08-22T02:03:36.397Z,16.14
2022-08-22T02:08:48.176Z,16.05
2022-08-22T02:13:57.001Z,15.96
2022-08-22T02:19:08.427Z,15.83
2022-08-22T02:24:26.075Z,15.81
2022-08-22T02:29:35.441Z,15.77
2022-08-22T02:34:43.605Z,15.70
2022-08-22T02:39:54.691Z,15.62
2022-08-22T02:45:04.393Z,15.52
2022-08-22T02:50:20.009Z,15.48
2022-08-22T02:55:36.239Z,15.38
2022-08-22T03:00:47.193Z,15.30
2022-08-22T03:06:03.319Z,15.27
2022-08-22T03:11:16.695Z,15.21
2022-08-22T03:16:27.129Z,15.14
2022-08-22T03:21:36.873Z,15.09
2022-08-22T03:26:47.206Z,15.01
2022-08-22T03:32:11.235Z,14.94
2022-08-22T03:37:19.361Z,14.86
2022-08-22T03:43:08.417Z,14.78
2022-08-22T03:48:58.291Z,14.62
2022-08-22T03:54:38.720Z,14.53
2022-08-22T04:00:02.782Z,14.52
2022-08-22T04:05:45.237Z,14.50
2022-08-22T04:11:23.387Z,14.49
2022-08-22T04:16:51.597Z,14.44
2022-08-22T04:22:22.789Z,14.45
2022-08-22T04:27:30.657Z,14.35
2022-08-22T04:32:38.713Z,14.36
2022-08-22T04:37:48.411Z,14.40
2022-08-22T04:42:55.149Z,14.45
2022-08-22T04:48:06.023Z,14.58
2022-08-22T04:53:50.026Z,14.66
2022-08-22T04:58:59.173Z,14.68
2022-08-22T05:04:07.466Z,14.66
2022-08-22T05:09:16.322Z,14.80
2022-08-22T05:14:24.583Z,14.86
2022-08-22T05:19:33.194Z,14.91
2022-08-22T05:24:42.320Z,15.03
2022-08-22T05:29:49.657Z,15.04
2022-08-22T05:34:58.827Z,15.13
2022-08-22T05:40:03.595Z,15.35
2022-08-22T05:45:12.040Z,15.60
2022-08-22T05:50:18.253Z,15.83
2022-08-22T05:55:29.085Z,15.93
2022-08-22T06:00:39.044Z,16.32
2022-08-22T06:05:45.304Z,16.72
2022-08-22T06:10:54.188Z,16.97
2022-08-22T06:16:08.305Z,17.43
2022-08-22T06:21:19.073Z,17.73
2022-08-22T06:26:25.653Z,17.94
2022-08-22T06:31:32.617Z,18.22
2022-08-22T06:36:38.244Z,18.05
2022-08-22T06:41:48.093Z,18.04
2022-08-22T06:46:55.110Z,18.24
2022-08-22T06:52:02.382Z,18.95
2022-08-22T06:57:11.313Z,19.07
2022-08-22T07:02:24.348Z,19.30
2022-08-22T07:07:29.335Z,19.30
2022-08-22T07:12:37.974Z,19.41
2022-08-22T07:17:50.579Z,19.59
2022-08-22T07:22:58.260Z,19.99
2022-08-22T07:28:16.294Z,20.25
2022-08-22T07:33:42.219Z,20.66
2022-08-22T07:38:53.318Z,20.55
2022-08-22T07:44:10.820Z,20.98
2022-08-22T07:49:21.758Z,21.36
2022-08-22T07:54:32.864Z,21.84
2022-08-22T07:59:40.868Z,22.11
2022-08-22T08:04:44.603Z,22.12
2022-08-22T08:09:53.334Z,22.89
2022-08-22T08:14:58.745Z,23.20
2022-08-22T08:20:06.979Z,23.05
2022-08-22T08:25:14.723Z,22.91
2022-08-22T08:30:21.330Z,23.03
2022-08-22T08:35:28.884Z,23.25
2022-08-22T08:40:57.298Z,24.32
2022-08-22T08:46:26.445Z,24.48
2022-08-22T08:51:54.493Z,24.94
2022-08-22T08:57:11.761Z,25.43
2022-08-22T09:02:44.243Z,25.79
2022-08-22T09:08:11.751Z,25.58
2022-08-22T09:13:42.479Z,25.45
2022-08-22T09:19:23.172Z,25.90
2022-08-22T09:24:52.431Z,26.27
2022-08-22T09:30:04.723Z,25.95
2022-08-22T09:35:17.427Z,26.39
2022-08-22T09:40:28.757Z,25.98
2022-08-22T09:45:52.976Z,26.45
2022-08-22T09:51:31.691Z,26.78
2022-08-22T09:56:39.260Z,27.23
2022-08-22T10:01:55.145Z,27.68
2022-08-22T10:07:11.861Z,27.19
2022-08-22T10:12:20.351Z,27.37
2022-08-22T10:17:32.586Z,27.99
2022-08-22T10:22:44.562Z,27.74
2022-08-22T10:27:56.536Z,28.51
2022-08-22T10:33:07.843Z,28.80
2022-08-22T10:38:25.104Z,28.28
2022-08-22T10:43:40.837Z,28.50
2022-08-22T10:48:52.564Z,28.86
2022-08-22T10:54:12.089Z,29.30
2022-08-22T10:59:27.237Z,29.26
2022-08-22T11:04:46.968Z,28.05
2022-08-22T11:09:58.117Z,28.16
2022-08-22T11:15:12.948Z,28.63
2022-08-22T11:20:21.986Z,28.20
2022-08-22T11:25:41.253Z,30.55
2022-08-22T11:30:54.610Z,30.55
2022-08-22T11:36:11.697Z,29.65
2022-08-22T11:41:21.611Z,29.11
2022-08-22T11:46:30.470Z,29.88
2022-08-22T11:51:57.252Z,29.68
2022-08-22T11:57:08.488Z,30.69
2022-08-22T12:02:19.880Z,29.85
2022-08-22T12:07:29.333Z,31.14
2022-08-22T12:12:43.611Z,32.51
2022-08-22T12:18:21.121Z,31.71
2022-08-22T12:23:49.737Z,33.44
2022-08-22T12:29:15.439Z,33.95
2022-08-22T12:34:27.943Z,34.41
2022-08-22T12:40:15.968Z,34.70
2022-08-22T12:45:33.526Z,35.43
2022-08-22T12:50:44.789Z,36.78
2022-08-22T12:56:03.171Z,35.82
2022-08-22T13:01:10.011Z,32.19
2022-08-22T13:06:54.295Z,35.72
2022-08-22T13:12:05.243Z,35.39
2022-08-22T13:17:24.238Z,34.90
2022-08-22T13:22:31.744Z,34.19
2022-08-22T13:27:51.146Z,34.76
2022-08-22T13:33:02.753Z,37.39
2022-08-22T13:38:12.349Z,32.89
2022-08-22T13:43:21.601Z,33.25
2022-08-22T13:48:32.349Z,34.49
2022-08-22T13:53:50.047Z,33.29
2022-08-22T13:59:25.316Z,31.89
2022-08-22T14:04:43.839Z,32.97
2022-08-22T14:09:55.751Z,34.26
2022-08-22T14:15:01.151Z,35.83
2022-08-22T14:20:12.601Z,35.13
2022-08-22T14:25:21.433Z,35.50
2022-08-22T14:30:27.821Z,33.68
2022-08-22T14:35:37.652Z,37.27
2022-08-22T14:40:42.091Z,36.76
2022-08-22T14:45:54.823Z,38.87
2022-08-22T15:04:26.459Z,41.12
2022-08-22T15:09:36.107Z,42.18
2022-08-22T15:14:52.157Z,37.22
2022-08-22T15:20:10.754Z,34.60
2022-08-22T15:25:18.279Z,34.62
2022-08-22T15:30:34.778Z,34.26
2022-08-22T15:35:39.939Z,33.97
2022-08-22T15:40:44.030Z,32.37
2022-08-22T15:45:49.924Z,32.34
2022-08-22T15:51:01.571Z,32.76
2022-08-22T15:56:28.130Z,32.62
2022-08-22T16:01:43.626Z,33.19
2022-08-22T16:06:57.978Z,30.90
2022-08-22T16:12:05.464Z,30.02
2022-08-22T16:17:53.185Z,29.46
2022-08-22T16:23:09.891Z,29.46
2022-08-22T16:28:54.215Z,29.31
2022-08-22T16:33:49.011Z,28.54
2022-08-22T16:38:56.569Z,28.63
2022-08-22T16:44:23.208Z,28.35
2022-08-22T16:49:29.954Z,28.32
2022-08-22T16:54:46.183Z,28.03
2022-08-22T17:00:01.283Z,27.90
2022-08-22T17:05:20.971Z,27.73
2022-08-22T17:10:37.877Z,27.60
2022-08-22T17:15:57.451Z,27.47
2022-08-22T17:21:10.071Z,27.29
2022-08-22T17:26:27.285Z,27.22
2022-08-22T17:31:35.785Z,27.01
2022-08-22T17:36:53.080Z,26.86
2022-08-22T17:42:10.242Z,26.72
2022-08-22T17:47:31.913Z,26.56
2022-08-22T17:52:42.577Z,26.47
2022-08-22T17:57:52.326Z,26.33
2022-08-22T18:03:02.023Z,26.21
2022-08-22T18:08:37.517Z,26.10
2022-08-22T18:13:43.097Z,26.00
2022-08-22T18:18:54.477Z,25.87
2022-08-22T18:24:01.946Z,25.78
2022-08-22T18:29:12.669Z,25.68
2022-08-22T18:34:23.931Z,25.57
2022-08-22T18:39:30.740Z,25.40
2022-08-22T18:44:37.138Z,25.32
2022-08-22T18:49:53.952Z,25.21
2022-08-22T18:55:04.669Z,25.10
2022-08-22T19:00:13.999Z,25.00
2022-08-22T19:05:47.230Z,24.93
2022-08-22T19:10:56.548Z,24.80
2022-08-22T19:16:15.259Z,24.71
2022-08-22T19:21:39.035Z,24.63
2022-08-22T19:26:44.793Z,24.54
2022-08-22T19:31:51.607Z,24.43
2022-08-22T19:37:30.729Z,24.37
2022-08-22T19:42:40.119Z,24.25
2022-08-22T19:47:53.667Z,24.16
2022-08-22T19:53:07.549Z,24.02
2022-08-22T19:58:31.915Z,23.89
2022-08-22T20:03:48.618Z,23.73
2022-08-22T20:09:03.914Z,23.58
2022-08-22T20:14:30.576Z,23.42
2022-08-22T20:19:41.829Z,23.29
2022-08-22T20:24:49.113Z,23.16
2022-08-22T20:30:00.262Z,23.08
2022-08-22T20:35:05.921Z,23.00
2022-08-22T20:40:51.802Z,22.97
2022-08-22T20:45:58.200Z,22.86
2022-08-22T20:51:05.619Z,22.72
2022-08-22T20:56:09.589Z,22.63
2022-08-22T21:01:15.323Z,22.54
2022-08-22T21:06:22.628Z,22.42
2022-08-22T21:11:43.399Z,22.35
2022-08-22T21:16:46.130Z,22.28
2022-08-22T21:21:50.189Z,22.22
2022-08-22T21:26:59.681Z,22.16
2022-08-22T21:32:16.884Z,21.99
2022-08-22T21:37:28.099Z,21.90
2022-08-22T21:42:35.445Z,21.76
2022-08-22T21:47:40.979Z,21.62
2022-08-22T21:53:00.868Z,21.51
2022-08-22T21:58:10.554Z,21.37
2022-08-22T22:03:16.790Z,21.28
2022-08-22T22:08:20.882Z,21.20
2022-08-22T22:13:24.576Z,21.13
2022-08-22T22:18:34.086Z,21.08
2022-08-22T22:23:38.183Z,21.08
2022-08-22T22:28:47.314Z,21.11
2022-08-22T22:33:50.044Z,21.09
2022-08-22T22:38:55.045Z,21.09
2022-08-22T22:43:58.518Z,21.14
2022-08-22T22:49:01.241Z,21.13
2022-08-22T22:54:05.487Z,21.11
2022-08-22T22:59:13.052Z,21.03
2022-08-22T23:04:17.620Z,21.02
2022-08-22T23:09:21.786Z,21.01
2022-08-22T23:14:31.541Z,20.99
2022-08-22T23:19:34.326Z,20.95
2022-08-22T23:24:40.310Z,20.97
2022-08-22T23:29:43.530Z,20.97
2022-08-22T23:34:48.785Z,20.95
2022-08-22T23:39:52.899Z,20.92
2022-08-22T23:44:55.852Z,20.81
2022-08-22T23:49:58.594Z,20.69
2022-08-22T23:55:09.438Z,20.56
